sensor_id;sensor_type;location;lat;lon;timestamp;P1;durP1;ratioP1;P2;durP2;ratioP2
35969;SDS011;22448;51.298;6.430;2023-12-07T00:02:04;109.63;;;52.35;;
35969;SDS011;22448;51.298;6.430;2023-12-07T00:04:32;119.82;;;52.47;;
35969;SDS011;22448;51.298;6.430;2023-12-07T00:06:59;105.47;;;50.28;;
35969;SDS011;22448;51.298;6.430;2023-12-07T00:09:26;112.25;;;50.75;;
35969;SDS011;22448;51.298;6.430;2023-12-07T00:11:53;101.38;;;49.17;;
35969;SDS011;22448;51.298;6.430;2023-12-07T00:14:20;103.88;;;48.58;;
35969;SDS011;22448;51.298;6.430;2023-12-07T00:16:47;107.43;;;51.63;;
35969;SDS011;22448;51.298;6.430;2023-12-07T00:19:15;116.05;;;51.05;;
35969;SDS011;22448;51.298;6.430;2023-12-07T00:21:42;100.03;;;48.20;;
35969;SDS011;22448;51.298;6.430;2023-12-07T00:24:09;108.18;;;49.33;;
35969;SDS011;22448;51.298;6.430;2023-12-07T00:26:36;113.50;;;50.65;;
35969;SDS011;22448;51.298;6.430;2023-12-07T00:29:04;116.68;;;51.88;;
35969;SDS011;22448;51.298;6.430;2023-12-07T00:31:31;99.18;;;47.58;;
35969;SDS011;22448;51.298;6.430;2023-12-07T00:33:58;107.55;;;49.88;;
35969;SDS011;22448;51.298;6.430;2023-12-07T00:36:26;101.68;;;49.83;;
35969;SDS011;22448;51.298;6.430;2023-12-07T00:38:53;108.90;;;49.90;;
35969;SDS011;22448;51.298;6.430;2023-12-07T00:41:20;95.22;;;46.25;;
35969;SDS011;22448;51.298;6.430;2023-12-07T00:43:47;92.32;;;45.92;;
35969;SDS011;22448;51.298;6.430;2023-12-07T00:46:14;108.28;;;45.88;;
35969;SDS011;22448;51.298;6.430;2023-12-07T00:48:41;97.32;;;45.15;;
35969;SDS011;22448;51.298;6.430;2023-12-07T00:51:08;93.63;;;44.38;;
35969;SDS011;22448;51.298;6.430;2023-12-07T00:53:36;96.10;;;46.20;;
35969;SDS011;22448;51.298;6.430;2023-12-07T00:56:03;95.95;;;45.33;;
35969;SDS011;22448;51.298;6.430;2023-12-07T00:58:31;91.75;;;45.42;;
35969;SDS011;22448;51.298;6.430;2023-12-07T01:00:58;90.90;;;45.03;;
35969;SDS011;22448;51.298;6.430;2023-12-07T01:03:25;85.60;;;43.10;;
35969;SDS011;22448;51.298;6.430;2023-12-07T01:05:52;97.53;;;44.83;;
35969;SDS011;22448;51.298;6.430;2023-12-07T01:08:20;92.28;;;44.65;;
35969;SDS011;22448;51.298;6.430;2023-12-07T01:10:47;91.20;;;43.47;;
35969;SDS011;22448;51.298;6.430;2023-12-07T01:13:14;86.55;;;42.17;;
35969;SDS011;22448;51.298;6.430;2023-12-07T01:15:41;88.07;;;43.88;;
35969;SDS011;22448;51.298;6.430;2023-12-07T01:18:08;79.93;;;40.80;;
35969;SDS011;22448;51.298;6.430;2023-12-07T01:20:35;88.35;;;41.47;;
35969;SDS011;22448;51.298;6.430;2023-12-07T01:23:02;84.75;;;41.63;;
35969;SDS011;22448;51.298;6.430;2023-12-07T01:25:29;83.22;;;41.10;;
35969;SDS011;22448;51.298;6.430;2023-12-07T01:27:56;83.10;;;41.10;;
35969;SDS011;22448;51.298;6.430;2023-12-07T01:30:24;86.25;;;42.83;;
35969;SDS011;22448;51.298;6.430;2023-12-07T01:32:51;89.30;;;41.70;;
35969;SDS011;22448;51.298;6.430;2023-12-07T01:35:18;81.10;;;40.75;;
35969;SDS011;22448;51.298;6.430;2023-12-07T01:37:45;92.32;;;43.80;;
35969;SDS011;22448;51.298;6.430;2023-12-07T01:40:12;88.75;;;43.13;;
35969;SDS011;22448;51.298;6.430;2023-12-07T01:42:49;91.43;;;43.45;;
35969;SDS011;22448;51.298;6.430;2023-12-07T01:45:18;95.25;;;45.10;;
35969;SDS011;22448;51.298;6.430;2023-12-07T01:47:46;91.63;;;44.30;;
35969;SDS011;22448;51.298;6.430;2023-12-07T01:50:14;85.20;;;42.40;;
35969;SDS011;22448;51.298;6.430;2023-12-07T01:52:43;94.00;;;44.53;;
35969;SDS011;22448;51.298;6.430;2023-12-07T01:55:14;94.20;;;42.63;;
35969;SDS011;22448;51.298;6.430;2023-12-07T01:57:43;99.88;;;46.25;;
35969;SDS011;22448;51.298;6.430;2023-12-07T02:00:12;99.25;;;45.45;;
35969;SDS011;22448;51.298;6.430;2023-12-07T02:02:40;102.53;;;46.58;;
35969;SDS011;22448;51.298;6.430;2023-12-07T02:05:07;99.57;;;45.03;;
35969;SDS011;22448;51.298;6.430;2023-12-07T02:07:35;96.22;;;44.90;;
35969;SDS011;22448;51.298;6.430;2023-12-07T02:10:02;103.03;;;45.45;;
35969;SDS011;22448;51.298;6.430;2023-12-07T02:12:30;101.70;;;47.13;;
35969;SDS011;22448;51.298;6.430;2023-12-07T02:14:57;107.20;;;47.75;;
35969;SDS011;22448;51.298;6.430;2023-12-07T02:17:47;107.45;;;47.15;;
35969;SDS011;22448;51.298;6.430;2023-12-07T02:23:00;96.50;;;46.83;;
35969;SDS011;22448;51.298;6.430;2023-12-07T02:25:32;93.22;;;45.70;;
35969;SDS011;22448;51.298;6.430;2023-12-07T02:28:06;106.82;;;46.53;;
35969;SDS011;22448;51.298;6.430;2023-12-07T02:30:33;103.05;;;48.03;;
35969;SDS011;22448;51.298;6.430;2023-12-07T02:33:00;112.07;;;49.80;;
35969;SDS011;22448;51.298;6.430;2023-12-07T02:35:28;108.45;;;48.78;;
35969;SDS011;22448;51.298;6.430;2023-12-07T02:37:55;109.63;;;48.72;;
35969;SDS011;22448;51.298;6.430;2023-12-07T02:40:24;109.65;;;49.67;;
35969;SDS011;22448;51.298;6.430;2023-12-07T02:42:53;113.13;;;49.03;;
35969;SDS011;22448;51.298;6.430;2023-12-07T02:45:21;117.85;;;49.33;;
35969;SDS011;22448;51.298;6.430;2023-12-07T02:47:48;106.50;;;49.08;;
35969;SDS011;22448;51.298;6.430;2023-12-07T02:50:15;113.38;;;48.97;;
35969;SDS011;22448;51.298;6.430;2023-12-07T02:52:43;107.20;;;48.88;;
35969;SDS011;22448;51.298;6.430;2023-12-07T02:55:10;102.13;;;47.35;;
35969;SDS011;22448;51.298;6.430;2023-12-07T02:57:38;104.35;;;49.15;;
35969;SDS011;22448;51.298;6.430;2023-12-07T03:00:05;113.53;;;48.17;;
35969;SDS011;22448;51.298;6.430;2023-12-07T03:02:38;117.50;;;48.35;;
35969;SDS011;22448;51.298;6.430;2023-12-07T03:05:06;100.30;;;45.85;;
35969;SDS011;22448;51.298;6.430;2023-12-07T03:07:34;109.07;;;48.55;;
35969;SDS011;22448;51.298;6.430;2023-12-07T03:10:02;116.90;;;49.13;;
35969;SDS011;22448;51.298;6.430;2023-12-07T03:12:30;109.90;;;49.22;;
35969;SDS011;22448;51.298;6.430;2023-12-07T03:14:57;105.68;;;48.15;;
35969;SDS011;22448;51.298;6.430;2023-12-07T03:17:24;113.03;;;48.35;;
35969;SDS011;22448;51.298;6.430;2023-12-07T03:19:51;106.30;;;48.58;;
35969;SDS011;22448;51.298;6.430;2023-12-07T03:22:18;116.30;;;51.03;;
35969;SDS011;22448;51.298;6.430;2023-12-07T03:24:46;124.68;;;51.63;;
35969;SDS011;22448;51.298;6.430;2023-12-07T03:27:15;113.88;;;50.65;;
35969;SDS011;22448;51.298;6.430;2023-12-07T03:29:42;116.85;;;50.25;;
35969;SDS011;22448;51.298;6.430;2023-12-07T03:32:09;118.28;;;52.75;;
35969;SDS011;22448;51.298;6.430;2023-12-07T03:34:36;124.60;;;53.55;;
35969;SDS011;22448;51.298;6.430;2023-12-07T03:37:04;135.05;;;53.00;;
35969;SDS011;22448;51.298;6.430;2023-12-07T03:39:31;212.85;;;55.97;;
35969;SDS011;22448;51.298;6.430;2023-12-07T03:41:59;149.40;;;52.97;;
35969;SDS011;22448;51.298;6.430;2023-12-07T03:44:26;164.90;;;54.22;;
35969;SDS011;22448;51.298;6.430;2023-12-07T03:46:54;147.57;;;52.28;;
35969;SDS011;22448;51.298;6.430;2023-12-07T03:49:21;159.27;;;53.78;;
35969;SDS011;22448;51.298;6.430;2023-12-07T03:51:48;160.35;;;56.30;;
35969;SDS011;22448;51.298;6.430;2023-12-07T03:54:16;160.70;;;54.28;;
35969;SDS011;22448;51.298;6.430;2023-12-07T03:56:43;158.65;;;54.45;;
35969;SDS011;22448;51.298;6.430;2023-12-07T03:59:10;153.85;;;52.90;;
35969;SDS011;22448;51.298;6.430;2023-12-07T04:01:37;166.38;;;51.22;;
35969;SDS011;22448;51.298;6.430;2023-12-07T04:04:05;134.40;;;51.90;;
35969;SDS011;22448;51.298;6.430;2023-12-07T04:06:32;142.00;;;52.67;;
35969;SDS011;22448;51.298;6.430;2023-12-07T04:08:59;137.30;;;51.90;;
35969;SDS011;22448;51.298;6.430;2023-12-07T04:11:26;156.43;;;51.63;;
35969;SDS011;22448;51.298;6.430;2023-12-07T04:13:53;148.32;;;51.65;;
35969;SDS011;22448;51.298;6.430;2023-12-07T04:16:20;156.63;;;53.55;;
35969;SDS011;22448;51.298;6.430;2023-12-07T04:18:48;313.27;;;54.97;;
35969;SDS011;22448;51.298;6.430;2023-12-07T04:21:15;145.27;;;51.45;;
35969;SDS011;22448;51.298;6.430;2023-12-07T04:23:42;162.07;;;53.00;;
35969;SDS011;22448;51.298;6.430;2023-12-07T04:26:09;203.45;;;51.72;;
35969;SDS011;22448;51.298;6.430;2023-12-07T04:28:36;178.15;;;53.30;;
35969;SDS011;22448;51.298;6.430;2023-12-07T04:31:04;139.30;;;49.40;;
35969;SDS011;22448;51.298;6.430;2023-12-07T04:33:31;157.95;;;51.47;;
35969;SDS011;22448;51.298;6.430;2023-12-07T04:35:58;184.43;;;51.05;;
35969;SDS011;22448;51.298;6.430;2023-12-07T04:38:25;136.75;;;50.75;;
35969;SDS011;22448;51.298;6.430;2023-12-07T04:40:53;167.52;;;52.63;;
35969;SDS011;22448;51.298;6.430;2023-12-07T04:43:20;149.15;;;50.00;;
35969;SDS011;22448;51.298;6.430;2023-12-07T04:45:47;177.60;;;53.15;;
35969;SDS011;22448;51.298;6.430;2023-12-07T04:48:14;163.13;;;51.97;;
35969;SDS011;22448;51.298;6.430;2023-12-07T04:50:41;146.45;;;50.40;;
35969;SDS011;22448;51.298;6.430;2023-12-07T04:53:08;174.18;;;52.53;;
35969;SDS011;22448;51.298;6.430;2023-12-07T04:55:36;150.30;;;50.80;;
35969;SDS011;22448;51.298;6.430;2023-12-07T04:58:03;149.90;;;52.10;;
35969;SDS011;22448;51.298;6.430;2023-12-07T05:00:30;168.60;;;51.17;;
35969;SDS011;22448;51.298;6.430;2023-12-07T05:02:57;161.85;;;49.25;;
35969;SDS011;22448;51.298;6.430;2023-12-07T05:05:24;161.57;;;50.63;;
35969;SDS011;22448;51.298;6.430;2023-12-07T05:07:52;152.43;;;49.75;;
35969;SDS011;22448;51.298;6.430;2023-12-07T05:10:19;148.73;;;50.40;;
35969;SDS011;22448;51.298;6.430;2023-12-07T05:12:46;152.88;;;49.65;;
35969;SDS011;22448;51.298;6.430;2023-12-07T05:15:13;162.30;;;50.20;;
35969;SDS011;22448;51.298;6.430;2023-12-07T05:17:40;141.35;;;49.25;;
35969;SDS011;22448;51.298;6.430;2023-12-07T05:20:07;427.30;;;56.13;;
35969;SDS011;22448;51.298;6.430;2023-12-07T05:22:35;158.18;;;48.85;;
35969;SDS011;22448;51.298;6.430;2023-12-07T05:25:02;156.63;;;47.78;;
35969;SDS011;22448;51.298;6.430;2023-12-07T05:27:30;143.30;;;45.97;;
35969;SDS011;22448;51.298;6.430;2023-12-07T05:29:57;173.88;;;50.03;;
35969;SDS011;22448;51.298;6.430;2023-12-07T05:32:24;206.55;;;49.47;;
35969;SDS011;22448;51.298;6.430;2023-12-07T05:34:52;388.35;;;54.05;;
35969;SDS011;22448;51.298;6.430;2023-12-07T05:37:19;409.92;;;56.85;;
35969;SDS011;22448;51.298;6.430;2023-12-07T05:39:46;281.27;;;49.75;;
35969;SDS011;22448;51.298;6.430;2023-12-07T05:42:14;191.05;;;51.53;;
35969;SDS011;22448;51.298;6.430;2023-12-07T05:44:41;284.60;;;51.22;;
35969;SDS011;22448;51.298;6.430;2023-12-07T05:47:08;266.40;;;52.17;;
35969;SDS011;22448;51.298;6.430;2023-12-07T05:49:35;179.32;;;47.33;;
35969;SDS011;22448;51.298;6.430;2023-12-07T05:52:02;326.15;;;50.42;;
35969;SDS011;22448;51.298;6.430;2023-12-07T05:54:29;195.93;;;45.70;;
35969;SDS011;22448;51.298;6.430;2023-12-07T05:56:57;238.55;;;46.85;;
35969;SDS011;22448;51.298;6.430;2023-12-07T05:59:24;396.90;;;53.83;;
35969;SDS011;22448;51.298;6.430;2023-12-07T06:01:51;338.63;;;55.38;;
35969;SDS011;22448;51.298;6.430;2023-12-07T06:04:19;214.38;;;48.92;;
35969;SDS011;22448;51.298;6.430;2023-12-07T06:06:46;222.48;;;53.20;;
35969;SDS011;22448;51.298;6.430;2023-12-07T06:09:14;309.90;;;52.25;;
35969;SDS011;22448;51.298;6.430;2023-12-07T06:11:41;253.38;;;47.13;;
35969;SDS011;22448;51.298;6.430;2023-12-07T06:14:08;242.70;;;46.65;;
35969;SDS011;22448;51.298;6.430;2023-12-07T06:16:35;193.00;;;44.83;;
35969;SDS011;22448;51.298;6.430;2023-12-07T06:19:02;475.50;;;49.90;;
35969;SDS011;22448;51.298;6.430;2023-12-07T06:21:30;452.58;;;51.55;;
35969;SDS011;22448;51.298;6.430;2023-12-07T06:23:57;233.20;;;44.65;;
35969;SDS011;22448;51.298;6.430;2023-12-07T06:26:25;277.75;;;45.55;;
35969;SDS011;22448;51.298;6.430;2023-12-07T06:28:52;193.20;;;45.15;;
35969;SDS011;22448;51.298;6.430;2023-12-07T06:31:19;500.90;;;49.55;;
35969;SDS011;22448;51.298;6.430;2023-12-07T06:33:48;286.60;;;47.42;;
35969;SDS011;22448;51.298;6.430;2023-12-07T06:36:19;291.00;;;46.35;;
35969;SDS011;22448;51.298;6.430;2023-12-07T06:38:49;338.13;;;47.22;;
35969;SDS011;22448;51.298;6.430;2023-12-07T06:41:16;272.65;;;50.17;;
35969;SDS011;22448;51.298;6.430;2023-12-07T06:43:43;187.25;;;46.25;;
35969;SDS011;22448;51.298;6.430;2023-12-07T06:46:11;374.92;;;51.55;;
35969;SDS011;22448;51.298;6.430;2023-12-07T06:48:40;304.45;;;49.28;;
35969;SDS011;22448;51.298;6.430;2023-12-07T06:51:07;284.50;;;49.40;;
35969;SDS011;22448;51.298;6.430;2023-12-07T06:53:34;246.30;;;48.95;;
35969;SDS011;22448;51.298;6.430;2023-12-07T06:56:01;235.93;;;47.35;;
35969;SDS011;22448;51.298;6.430;2023-12-07T06:58:29;239.35;;;49.10;;
35969;SDS011;22448;51.298;6.430;2023-12-07T07:00:56;463.80;;;55.80;;
35969;SDS011;22448;51.298;6.430;2023-12-07T07:03:24;302.95;;;57.97;;
35969;SDS011;22448;51.298;6.430;2023-12-07T07:05:51;279.55;;;58.63;;
35969;SDS011;22448;51.298;6.430;2023-12-07T07:08:18;298.75;;;57.00;;
35969;SDS011;22448;51.298;6.430;2023-12-07T07:10:46;247.25;;;53.45;;
35969;SDS011;22448;51.298;6.430;2023-12-07T07:13:16;328.88;;;58.53;;
35969;SDS011;22448;51.298;6.430;2023-12-07T07:15:44;273.83;;;56.65;;
35969;SDS011;22448;51.298;6.430;2023-12-07T07:18:11;300.38;;;60.63;;
35969;SDS011;22448;51.298;6.430;2023-12-07T07:20:38;395.27;;;61.92;;
35969;SDS011;22448;51.298;6.430;2023-12-07T07:23:06;345.25;;;63.15;;
35969;SDS011;22448;51.298;6.430;2023-12-07T07:25:34;386.80;;;61.83;;
35969;SDS011;22448;51.298;6.430;2023-12-07T07:28:02;452.80;;;63.97;;
35969;SDS011;22448;51.298;6.430;2023-12-07T07:30:29;332.90;;;63.15;;
35969;SDS011;22448;51.298;6.430;2023-12-07T07:32:57;321.83;;;59.67;;
35969;SDS011;22448;51.298;6.430;2023-12-07T07:35:24;269.90;;;56.25;;
35969;SDS011;22448;51.298;6.430;2023-12-07T07:37:54;398.52;;;59.25;;
35969;SDS011;22448;51.298;6.430;2023-12-07T07:40:21;265.58;;;51.47;;
35969;SDS011;22448;51.298;6.430;2023-12-07T07:42:49;264.63;;;55.03;;
35969;SDS011;22448;51.298;6.430;2023-12-07T07:45:16;269.73;;;54.75;;
35969;SDS011;22448;51.298;6.430;2023-12-07T07:47:43;285.65;;;55.50;;
35969;SDS011;22448;51.298;6.430;2023-12-07T07:50:10;302.05;;;55.60;;
35969;SDS011;22448;51.298;6.430;2023-12-07T07:52:37;263.88;;;54.47;;
35969;SDS011;22448;51.298;6.430;2023-12-07T07:55:07;230.55;;;52.50;;
35969;SDS011;22448;51.298;6.430;2023-12-07T07:57:34;270.08;;;55.40;;
35969;SDS011;22448;51.298;6.430;2023-12-07T08:00:01;241.77;;;55.35;;
35969;SDS011;22448;51.298;6.430;2023-12-07T08:02:31;259.35;;;55.85;;
35969;SDS011;22448;51.298;6.430;2023-12-07T08:04:58;250.98;;;53.20;;
35969;SDS011;22448;51.298;6.430;2023-12-07T08:07:25;264.63;;;55.50;;
35969;SDS011;22448;51.298;6.430;2023-12-07T08:09:53;272.15;;;53.95;;
35969;SDS011;22448;51.298;6.430;2023-12-07T08:12:20;273.55;;;50.40;;
35969;SDS011;22448;51.298;6.430;2023-12-07T08:14:49;233.48;;;49.97;;
35969;SDS011;22448;51.298;6.430;2023-12-07T08:17:16;231.55;;;50.25;;
35969;SDS011;22448;51.298;6.430;2023-12-07T08:19:46;303.70;;;51.63;;
35969;SDS011;22448;51.298;6.430;2023-12-07T08:22:14;331.27;;;52.78;;
35969;SDS011;22448;51.298;6.430;2023-12-07T08:24:42;290.02;;;53.35;;
35969;SDS011;22448;51.298;6.430;2023-12-07T08:27:12;309.80;;;53.05;;
35969;SDS011;22448;51.298;6.430;2023-12-07T08:29:39;353.60;;;52.88;;
35969;SDS011;22448;51.298;6.430;2023-12-07T08:32:06;462.10;;;57.33;;
35969;SDS011;22448;51.298;6.430;2023-12-07T08:34:33;555.40;;;58.80;;
35969;SDS011;22448;51.298;6.430;2023-12-07T08:37:00;562.65;;;62.05;;
35969;SDS011;22448;51.298;6.430;2023-12-07T08:39:29;377.88;;;58.20;;
35969;SDS011;22448;51.298;6.430;2023-12-07T08:41:56;306.13;;;57.97;;
35969;SDS011;22448;51.298;6.430;2023-12-07T08:44:23;341.50;;;57.85;;
35969;SDS011;22448;51.298;6.430;2023-12-07T08:46:50;315.33;;;55.65;;
35969;SDS011;22448;51.298;6.430;2023-12-07T08:49:17;291.08;;;55.65;;
35969;SDS011;22448;51.298;6.430;2023-12-07T08:51:44;326.88;;;59.58;;
35969;SDS011;22448;51.298;6.430;2023-12-07T08:54:32;273.42;;;57.28;;
35969;SDS011;22448;51.298;6.430;2023-12-07T08:57:00;269.15;;;59.00;;
35969;SDS011;22448;51.298;6.430;2023-12-07T08:59:27;551.28;;;63.63;;
35969;SDS011;22448;51.298;6.430;2023-12-07T09:01:54;274.05;;;54.95;;
35969;SDS011;22448;51.298;6.430;2023-12-07T09:04:21;316.00;;;58.25;;
35969;SDS011;22448;51.298;6.430;2023-12-07T09:06:48;352.23;;;59.35;;
35969;SDS011;22448;51.298;6.430;2023-12-07T09:09:16;310.63;;;55.10;;
35969;SDS011;22448;51.298;6.430;2023-12-07T09:11:43;255.18;;;55.65;;
35969;SDS011;22448;51.298;6.430;2023-12-07T09:14:10;267.23;;;53.75;;
35969;SDS011;22448;51.298;6.430;2023-12-07T09:16:44;375.55;;;52.10;;
35969;SDS011;22448;51.298;6.430;2023-12-07T09:19:12;317.63;;;51.78;;
35969;SDS011;22448;51.298;6.430;2023-12-07T09:21:40;258.98;;;47.47;;
35969;SDS011;22448;51.298;6.430;2023-12-07T09:24:07;352.15;;;45.92;;
35969;SDS011;22448;51.298;6.430;2023-12-07T09:26:35;264.45;;;47.97;;
35969;SDS011;22448;51.298;6.430;2023-12-07T09:29:04;288.55;;;51.72;;
35969;SDS011;22448;51.298;6.430;2023-12-07T09:31:32;271.50;;;47.75;;
35969;SDS011;22448;51.298;6.430;2023-12-07T09:33:59;238.20;;;46.33;;
35969;SDS011;22448;51.298;6.430;2023-12-07T09:36:38;222.55;;;44.92;;
35969;SDS011;22448;51.298;6.430;2023-12-07T09:39:05;217.07;;;46.70;;
35969;SDS011;22448;51.298;6.430;2023-12-07T09:41:32;179.80;;;48.63;;
35969;SDS011;22448;51.298;6.430;2023-12-07T09:44:00;176.07;;;48.92;;
35969;SDS011;22448;51.298;6.430;2023-12-07T09:46:27;211.40;;;51.22;;
35969;SDS011;22448;51.298;6.430;2023-12-07T09:48:55;179.57;;;51.63;;
35969;SDS011;22448;51.298;6.430;2023-12-07T09:51:22;202.27;;;54.38;;
35969;SDS011;22448;51.298;6.430;2023-12-07T09:53:52;222.02;;;55.25;;
35969;SDS011;22448;51.298;6.430;2023-12-07T09:56:21;196.00;;;55.53;;
35969;SDS011;22448;51.298;6.430;2023-12-07T09:58:48;206.65;;;59.05;;
35969;SDS011;22448;51.298;6.430;2023-12-07T10:01:15;213.35;;;56.85;;
35969;SDS011;22448;51.298;6.430;2023-12-07T10:03:42;232.73;;;63.75;;
35969;SDS011;22448;51.298;6.430;2023-12-07T10:06:13;230.52;;;61.88;;
35969;SDS011;22448;51.298;6.430;2023-12-07T10:08:41;180.07;;;54.63;;
35969;SDS011;22448;51.298;6.430;2023-12-07T10:11:10;178.77;;;56.67;;
35969;SDS011;22448;51.298;6.430;2023-12-07T10:13:41;182.75;;;56.22;;
35969;SDS011;22448;51.298;6.430;2023-12-07T10:16:12;187.02;;;57.40;;
35969;SDS011;22448;51.298;6.430;2023-12-07T10:18:42;188.48;;;56.17;;
35969;SDS011;22448;51.298;6.430;2023-12-07T10:21:11;186.10;;;56.17;;
35969;SDS011;22448;51.298;6.430;2023-12-07T10:23:40;177.07;;;57.00;;
35969;SDS011;22448;51.298;6.430;2023-12-07T10:26:10;161.93;;;54.97;;
35969;SDS011;22448;51.298;6.430;2023-12-07T10:28:37;165.32;;;53.92;;
35969;SDS011;22448;51.298;6.430;2023-12-07T10:31:09;153.05;;;50.90;;
35969;SDS011;22448;51.298;6.430;2023-12-07T10:33:39;152.05;;;51.45;;
35969;SDS011;22448;51.298;6.430;2023-12-07T10:36:07;150.57;;;49.33;;
35969;SDS011;22448;51.298;6.430;2023-12-07T10:38:35;134.60;;;46.92;;
35969;SDS011;22448;51.298;6.430;2023-12-07T10:41:04;149.05;;;49.47;;
35969;SDS011;22448;51.298;6.430;2023-12-07T10:43:40;139.90;;;47.00;;
35969;SDS011;22448;51.298;6.430;2023-12-07T10:46:15;143.10;;;46.90;;
35969;SDS011;22448;51.298;6.430;2023-12-07T10:48:45;131.85;;;44.72;;
35969;SDS011;22448;51.298;6.430;2023-12-07T10:51:17;147.65;;;47.22;;
35969;SDS011;22448;51.298;6.430;2023-12-07T10:54:02;139.32;;;45.70;;
35969;SDS011;22448;51.298;6.430;2023-12-07T10:56:33;123.32;;;44.35;;
35969;SDS011;22448;51.298;6.430;2023-12-07T10:59:08;126.28;;;43.90;;
35969;SDS011;22448;51.298;6.430;2023-12-07T11:01:56;123.97;;;45.33;;
35969;SDS011;22448;51.298;6.430;2023-12-07T11:04:24;121.93;;;43.53;;
35969;SDS011;22448;51.298;6.430;2023-12-07T11:06:52;123.10;;;45.97;;
35969;SDS011;22448;51.298;6.430;2023-12-07T11:09:25;115.25;;;44.40;;
35969;SDS011;22448;51.298;6.430;2023-12-07T11:12:00;113.90;;;43.55;;
35969;SDS011;22448;51.298;6.430;2023-12-07T11:14:32;110.45;;;42.65;;
35969;SDS011;22448;51.298;6.430;2023-12-07T11:16:59;107.03;;;43.95;;
35969;SDS011;22448;51.298;6.430;2023-12-07T11:22:06;103.38;;;41.75;;
35969;SDS011;22448;51.298;6.430;2023-12-07T11:24:33;95.18;;;42.38;;
35969;SDS011;22448;51.298;6.430;2023-12-07T11:27:02;98.65;;;41.97;;
35969;SDS011;22448;51.298;6.430;2023-12-07T11:29:29;87.70;;;41.28;;
35969;SDS011;22448;51.298;6.430;2023-12-07T11:31:57;82.43;;;40.75;;
35969;SDS011;22448;51.298;6.430;2023-12-07T11:34:40;74.22;;;36.15;;
35969;SDS011;22448;51.298;6.430;2023-12-07T11:37:10;69.60;;;34.65;;
35969;SDS011;22448;51.298;6.430;2023-12-07T11:39:39;60.58;;;33.95;;
35969;SDS011;22448;51.298;6.430;2023-12-07T11:44:42;57.40;;;30.65;;
35969;SDS011;22448;51.298;6.430;2023-12-07T11:47:15;54.92;;;28.88;;
35969;SDS011;22448;51.298;6.430;2023-12-07T11:49:44;51.22;;;27.75;;
35969;SDS011;22448;51.298;6.430;2023-12-07T11:52:12;47.67;;;27.45;;
35969;SDS011;22448;51.298;6.430;2023-12-07T11:54:43;50.50;;;26.83;;
35969;SDS011;22448;51.298;6.430;2023-12-07T11:57:13;40.00;;;25.60;;
35969;SDS011;22448;51.298;6.430;2023-12-07T11:59:43;43.13;;;24.17;;
35969;SDS011;22448;51.298;6.430;2023-12-07T12:02:11;40.30;;;24.05;;
35969;SDS011;22448;51.298;6.430;2023-12-07T12:04:39;42.25;;;23.70;;
35969;SDS011;22448;51.298;6.430;2023-12-07T12:07:07;43.53;;;25.15;;
35969;SDS011;22448;51.298;6.430;2023-12-07T12:09:35;41.13;;;22.88;;
35969;SDS011;22448;51.298;6.430;2023-12-07T12:12:02;44.28;;;24.13;;
35969;SDS011;22448;51.298;6.430;2023-12-07T12:14:29;44.38;;;24.58;;
35969;SDS011;22448;51.298;6.430;2023-12-07T12:16:57;38.85;;;23.90;;
35969;SDS011;22448;51.298;6.430;2023-12-07T12:19:24;43.63;;;25.15;;
35969;SDS011;22448;51.298;6.430;2023-12-07T12:22:02;39.92;;;23.98;;
35969;SDS011;22448;51.298;6.430;2023-12-07T12:24:34;44.90;;;24.02;;
35969;SDS011;22448;51.298;6.430;2023-12-07T12:27:03;38.80;;;23.17;;
35969;SDS011;22448;51.298;6.430;2023-12-07T12:29:31;40.08;;;22.27;;
35969;SDS011;22448;51.298;6.430;2023-12-07T12:32:04;40.67;;;23.55;;
35969;SDS011;22448;51.298;6.430;2023-12-07T12:34:33;40.08;;;23.55;;
35969;SDS011;22448;51.298;6.430;2023-12-07T12:37:01;36.30;;;22.08;;
35969;SDS011;22448;51.298;6.430;2023-12-07T12:39:33;36.25;;;22.42;;
35969;SDS011;22448;51.298;6.430;2023-12-07T12:42:01;44.85;;;24.55;;
35969;SDS011;22448;51.298;6.430;2023-12-07T12:44:30;39.90;;;23.77;;
35969;SDS011;22448;51.298;6.430;2023-12-07T12:47:07;39.22;;;24.45;;
35969;SDS011;22448;51.298;6.430;2023-12-07T12:49:37;40.47;;;23.50;;
35969;SDS011;22448;51.298;6.430;2023-12-07T12:52:09;42.70;;;23.00;;
35969;SDS011;22448;51.298;6.430;2023-12-07T12:54:38;38.85;;;24.23;;
35969;SDS011;22448;51.298;6.430;2023-12-07T12:57:06;44.80;;;23.70;;
35969;SDS011;22448;51.298;6.430;2023-12-07T12:59:34;42.67;;;23.23;;
35969;SDS011;22448;51.298;6.430;2023-12-07T13:02:02;34.63;;;21.75;;
35969;SDS011;22448;51.298;6.430;2023-12-07T13:04:32;40.67;;;23.25;;
35969;SDS011;22448;51.298;6.430;2023-12-07T13:07:03;33.25;;;21.58;;
35969;SDS011;22448;51.298;6.430;2023-12-07T13:09:31;34.33;;;21.50;;
35969;SDS011;22448;51.298;6.430;2023-12-07T13:11:58;36.58;;;22.10;;
35969;SDS011;22448;51.298;6.430;2023-12-07T13:14:30;34.47;;;20.75;;
35969;SDS011;22448;51.298;6.430;2023-12-07T13:17:01;39.80;;;21.80;;
35969;SDS011;22448;51.298;6.430;2023-12-07T13:19:30;32.97;;;20.80;;
35969;SDS011;22448;51.298;6.430;2023-12-07T13:21:58;38.80;;;21.77;;
35969;SDS011;22448;51.298;6.430;2023-12-07T13:24:26;36.08;;;21.55;;
35969;SDS011;22448;51.298;6.430;2023-12-07T13:26:53;31.58;;;20.35;;
35969;SDS011;22448;51.298;6.430;2023-12-07T13:29:22;35.30;;;20.30;;
35969;SDS011;22448;51.298;6.430;2023-12-07T13:32:01;28.48;;;20.30;;
35969;SDS011;22448;51.298;6.430;2023-12-07T13:34:30;36.20;;;19.85;;
35969;SDS011;22448;51.298;6.430;2023-12-07T13:36:57;32.63;;;20.05;;
35969;SDS011;22448;51.298;6.430;2023-12-07T13:39:24;30.80;;;18.92;;
35969;SDS011;22448;51.298;6.430;2023-12-07T13:41:57;33.83;;;19.83;;
35969;SDS011;22448;51.298;6.430;2023-12-07T13:44:27;35.00;;;19.27;;
35969;SDS011;22448;51.298;6.430;2023-12-07T13:46:55;32.13;;;18.48;;
35969;SDS011;22448;51.298;6.430;2023-12-07T13:49:24;33.53;;;19.52;;
35969;SDS011;22448;51.298;6.430;2023-12-07T13:52:00;28.98;;;18.00;;
35969;SDS011;22448;51.298;6.430;2023-12-07T13:54:33;31.00;;;18.02;;
35969;SDS011;22448;51.298;6.430;2023-12-07T13:57:05;28.03;;;17.13;;
35969;SDS011;22448;51.298;6.430;2023-12-07T13:59:33;29.40;;;16.83;;
35969;SDS011;22448;51.298;6.430;2023-12-07T14:02:04;29.15;;;18.23;;
35969;SDS011;22448;51.298;6.430;2023-12-07T14:04:31;31.58;;;18.55;;
35969;SDS011;22448;51.298;6.430;2023-12-07T14:07:15;29.00;;;17.38;;
35969;SDS011;22448;51.298;6.430;2023-12-07T14:09:44;28.65;;;17.30;;
35969;SDS011;22448;51.298;6.430;2023-12-07T14:12:23;27.42;;;17.23;;
35969;SDS011;22448;51.298;6.430;2023-12-07T14:14:51;30.98;;;17.70;;
35969;SDS011;22448;51.298;6.430;2023-12-07T14:17:18;32.90;;;18.98;;
35969;SDS011;22448;51.298;6.430;2023-12-07T14:19:46;27.15;;;16.80;;
35969;SDS011;22448;51.298;6.430;2023-12-07T14:22:18;25.33;;;15.95;;
35969;SDS011;22448;51.298;6.430;2023-12-07T14:24:45;27.13;;;16.42;;
35969;SDS011;22448;51.298;6.430;2023-12-07T14:27:14;28.92;;;17.90;;
35969;SDS011;22448;51.298;6.430;2023-12-07T14:29:42;35.45;;;17.38;;